This is the latest recevied weather packets stored in our database for station/object AK4NG. If no packets are shown the sender has not sent any weather packets the latest 10 day(s).
| Time | Temp. | Humidity | Pressure | Rain* | Wind** | Luminosity | Snow |
|---|---|---|---|---|---|---|---|
| 1777471275 | 20.56° C | 90% | 1018.3 hPa | 0 mm | - | 145 W/m² | - |
| 1777470971 | 21.11° C | 91% | 1018.4 hPa | 0 mm | - | 135 W/m² | - |
| 1777470668 | 20.56° C | 92% | 1018.1 hPa | 0 mm | - | 245 W/m² | - |
| 1777470364 | 20.56° C | 92% | 1017.5 hPa | 0 mm | - | 246 W/m² | - |
| 1777470061 | 20.56° C | 91% | 1017.9 hPa | 0 mm | - | 229 W/m² | - |
| 1777469757 | 20.56° C | 94% | 1018 hPa | 0 mm | - | 218 W/m² | - |
| 1777469453 | 20.56° C | 94% | 1018.2 hPa | 0 mm | - | 241 W/m² | - |
| 1777469148 | 20° C | 94% | 1018 hPa | 0 mm | - | 166 W/m² | - |
| 1777468848 | 20° C | 92% | 1017.8 hPa | 0 mm | - | 144 W/m² | - |
| 1777468545 | 20.56° C | 91% | 1017.7 hPa | 0 mm | - | 120 W/m² | - |
| 1777468241 | 20° C | 94% | 1017.7 hPa | 0 mm | - | 300 W/m² | - |
| 1777467938 | 20° C | 94% | 1017.7 hPa | 0 mm | - | 188 W/m² | - |
| 1777467634 | 20° C | 95% | 1017.8 hPa | 0 mm | - | 179 W/m² | - |
| 1777467329 | 19.44° C | 95% | 1017.4 hPa | 0 mm | - | 120 W/m² | - |
| 1777467026 | 19.44° C | 97% | 1017.6 hPa | 0 mm | - | 184 W/m² | - |
| 1777466723 | 19.44° C | 98% | 1017.7 hPa | 0 mm | - | 172 W/m² | - |
| 1777466420 | 19.44° C | 99% | 1017.8 hPa | 0 mm | - | 146 W/m² | - |
| 1777466115 | 18.89° C | 99% | 1017.6 hPa | 0 mm | - | 120 W/m² | - |
| 1777465813 | 18.89° C | 99% | 1017.5 hPa | 0 mm | - | 93 W/m² | - |
| 1777465508 | 18.33° C | 99% | 1017.2 hPa | 0 mm | - | 85 W/m² | - |
| 1777465202 | 18.33° C | 99% | 1017 hPa | 0 mm | - | 87 W/m² | - |
| 1777464897 | 17.78° C | 99% | 1017.3 hPa | 0 mm | - | 57 W/m² | - |
| 1777464592 | 17.78° C | 99% | 1017.4 hPa | 0 mm | - | 45 W/m² | - |
| 1777464289 | 17.78° C | 99% | 1017.2 hPa | 0 mm | - | 35 W/m² | - |
| 1777463984 | 17.78° C | 99% | 1017.5 hPa | 0 mm | - | 32 W/m² | - |
* Rain latest hour (hover to see other rain measurements)
** Current wind speed in m/s (hover to see current wind gust speed)